createdAt,value
2018-09-19T00:00:54.601Z,5.00
2018-09-19T00:01:54.590Z,4.40
2018-09-19T00:02:54.536Z,4.60
2018-09-19T00:03:54.492Z,5.00
2018-09-19T00:04:54.491Z,4.50
2018-09-19T00:05:54.409Z,4.40
2018-09-19T00:06:54.412Z,4.60
2018-09-19T00:07:54.349Z,4.80
2018-09-19T00:08:54.307Z,4.60
2018-09-19T00:09:54.283Z,4.90
2018-09-19T00:10:54.226Z,4.50
2018-09-19T00:12:04.070Z,5.10
2018-09-19T00:12:54.335Z,4.40
2018-09-19T00:13:54.110Z,4.50
2018-09-19T00:14:54.076Z,4.90
2018-09-19T00:15:54.098Z,5.00
2018-09-19T00:16:54.048Z,5.30
2018-09-19T00:17:53.958Z,4.80
2018-09-19T00:18:53.978Z,4.90
2018-09-19T00:19:53.893Z,4.80
2018-09-19T00:20:53.895Z,4.90
2018-09-19T00:21:53.869Z,4.90
2018-09-19T00:22:53.799Z,4.60
2018-09-19T00:23:53.736Z,4.80
2018-09-19T00:24:53.737Z,4.90
2018-09-19T00:25:53.675Z,4.70
2018-09-19T00:26:53.639Z,4.70
2018-09-19T00:27:53.651Z,4.60
2018-09-19T00:28:53.574Z,4.80
2018-09-19T00:29:53.508Z,4.60
2018-09-19T00:30:53.476Z,5.10
2018-09-19T00:31:53.428Z,4.70
2018-09-19T00:32:53.458Z,4.80
2018-09-19T00:33:53.377Z,5.10
2018-09-19T00:34:53.333Z,4.70
2018-09-19T00:35:53.288Z,4.90
2018-09-19T00:36:53.237Z,4.90
2018-09-19T00:37:53.335Z,5.10
2018-09-19T00:38:53.163Z,5.20
2018-09-19T00:39:53.143Z,4.90
2018-09-19T00:40:53.095Z,4.90
2018-09-19T00:41:53.054Z,4.60
2018-09-19T00:42:53.056Z,4.70
2018-09-19T00:43:53.002Z,5.20
2018-09-19T00:44:52.929Z,4.60
2018-09-19T00:45:52.892Z,5.00
2018-09-19T00:46:52.863Z,4.80
2018-09-19T00:47:52.827Z,5.10
2018-09-19T00:48:52.811Z,4.70
2018-09-19T00:49:52.742Z,4.60
2018-09-19T00:50:52.724Z,4.90
2018-09-19T00:51:52.673Z,5.40
2018-09-19T00:52:52.652Z,5.10
2018-09-19T00:53:52.605Z,4.90
2018-09-19T00:54:52.553Z,5.30
2018-09-19T00:55:52.529Z,5.00
2018-09-19T00:56:52.476Z,5.20
2018-09-19T00:57:52.459Z,5.10
2018-09-19T00:58:52.409Z,5.20
2018-09-19T00:59:52.378Z,5.40
2018-09-19T01:00:52.352Z,4.80
2018-09-19T01:01:52.304Z,4.90
2018-09-19T01:02:52.279Z,5.20
2018-09-19T01:03:52.203Z,5.10
2018-09-19T01:04:52.175Z,5.00
2018-09-19T01:05:52.138Z,4.80
2018-09-19T01:06:52.108Z,5.10
2018-09-19T01:07:52.113Z,5.10
2018-09-19T01:08:52.012Z,4.90
2018-09-19T01:10:03.524Z,4.70
2018-09-19T01:10:51.944Z,5.10
2018-09-19T01:11:51.901Z,5.10
2018-09-19T01:12:51.916Z,5.10
2018-09-19T01:13:51.830Z,5.30
2018-09-19T01:14:51.784Z,4.90
2018-09-19T01:15:51.765Z,4.90
2018-09-19T01:16:51.716Z,5.20
2018-09-19T01:17:51.709Z,5.20
2018-09-19T01:18:51.643Z,5.20
2018-09-19T01:19:51.596Z,5.50
2018-09-19T01:20:51.565Z,5.10
2018-09-19T01:21:51.535Z,4.70
2018-09-19T01:22:51.514Z,5.30
2018-09-19T01:23:51.452Z,4.80
2018-09-19T01:24:51.407Z,5.50
2018-09-19T01:25:51.371Z,5.60
2018-09-19T01:26:51.343Z,5.00
2018-09-19T01:27:51.301Z,5.00
2018-09-19T01:28:51.258Z,5.00
2018-09-19T01:29:51.219Z,4.90
2018-09-19T01:30:51.178Z,5.10
2018-09-19T01:31:51.180Z,5.10
2018-09-19T01:32:51.126Z,5.30
2018-09-19T01:33:51.072Z,5.30
2018-09-19T01:35:00.536Z,5.40
2018-09-19T01:35:50.979Z,5.50
2018-09-19T01:36:51.054Z,5.00
2018-09-19T01:37:50.924Z,5.30
2018-09-19T01:38:50.870Z,5.30
2018-09-19T01:39:50.835Z,5.60
2018-09-19T01:40:50.807Z,5.40
2018-09-19T01:41:50.772Z,5.50
2018-09-19T01:42:50.738Z,5.30
2018-09-19T01:43:50.682Z,5.20
2018-09-19T01:44:50.651Z,5.20
2018-09-19T01:45:50.602Z,5.70
2018-09-19T01:46:50.589Z,5.30
2018-09-19T01:47:50.518Z,5.20
2018-09-19T01:48:50.484Z,5.10
2018-09-19T01:49:50.464Z,5.00
2018-09-19T01:50:50.401Z,5.10
2018-09-19T01:51:50.387Z,5.20
2018-09-19T01:52:50.338Z,5.50
2018-09-19T01:53:50.297Z,6.00
2018-09-19T01:54:50.252Z,5.70
2018-09-19T01:55:50.213Z,5.40
2018-09-19T01:57:00.076Z,5.40
2018-09-19T01:57:50.126Z,5.70
2018-09-19T01:58:50.122Z,5.80
2018-09-19T01:59:50.050Z,5.30
2018-09-19T02:00:50.056Z,5.60
2018-09-19T02:01:50.003Z,5.50
2018-09-19T02:02:49.933Z,5.10
2018-09-19T02:03:49.892Z,5.20
2018-09-19T02:04:49.867Z,5.40
2018-09-19T02:05:49.831Z,5.10
2018-09-19T02:06:49.834Z,5.30
2018-09-19T02:07:49.746Z,5.40
2018-09-19T02:08:49.704Z,5.50
2018-09-19T02:09:49.667Z,5.30
2018-09-19T02:10:49.681Z,5.20
2018-09-19T02:11:49.612Z,5.40
2018-09-19T02:12:49.622Z,5.40
2018-09-19T02:13:49.510Z,5.50
2018-09-19T02:14:49.691Z,5.90
2018-09-19T02:15:49.474Z,5.70
2018-09-19T02:16:49.433Z,6.40
2018-09-19T02:17:49.366Z,5.60
2018-09-19T02:18:49.356Z,5.30
2018-09-19T02:19:49.304Z,5.40
2018-09-19T02:20:49.276Z,5.70
2018-09-19T02:21:49.242Z,5.50
2018-09-19T02:22:49.172Z,5.40
2018-09-19T02:23:49.132Z,5.70
2018-09-19T02:24:49.105Z,5.20
2018-09-19T02:25:49.151Z,5.80
2018-09-19T02:26:49.021Z,5.40
2018-09-19T02:27:48.999Z,5.70
2018-09-19T02:28:48.955Z,5.70
2018-09-19T02:29:48.910Z,5.60
2018-09-19T02:30:48.893Z,5.70
2018-09-19T02:31:48.843Z,6.00
2018-09-19T02:32:48.785Z,5.50
2018-09-19T02:33:48.766Z,6.00
2018-09-19T02:34:48.710Z,5.90
2018-09-19T02:35:48.695Z,6.50
2018-09-19T02:36:48.653Z,5.50
2018-09-19T02:37:48.604Z,6.50
2018-09-19T02:38:48.569Z,5.10
2018-09-19T02:39:48.539Z,5.40
2018-09-19T02:40:48.503Z,5.50
2018-09-19T02:41:48.442Z,6.10
2018-09-19T02:42:48.391Z,5.90
2018-09-19T02:43:48.361Z,5.90
2018-09-19T02:44:48.344Z,5.80
2018-09-19T02:45:48.298Z,5.70
2018-09-19T02:46:48.250Z,5.70
2018-09-19T02:47:48.195Z,5.70
2018-09-19T02:48:48.165Z,6.00
2018-09-19T02:49:48.118Z,5.60
2018-09-19T02:50:48.124Z,5.70
2018-09-19T02:51:48.047Z,5.70
2018-09-19T02:52:48.010Z,5.30
2018-09-19T02:53:47.984Z,5.40
2018-09-19T02:54:47.933Z,5.60
2018-09-19T02:55:47.907Z,5.20
2018-09-19T02:56:47.852Z,5.60
2018-09-19T02:57:47.810Z,5.50
2018-09-19T02:58:47.764Z,5.30
2018-09-19T02:59:47.731Z,5.90
2018-09-19T03:00:47.712Z,5.60
2018-09-19T03:01:47.654Z,6.10
2018-09-19T03:02:47.667Z,5.90
2018-09-19T03:03:47.592Z,5.40
2018-09-19T03:04:47.571Z,5.30
2018-09-19T03:05:47.543Z,6.00
2018-09-19T03:06:47.460Z,5.50
2018-09-19T03:07:57.605Z,5.50
2018-09-19T03:08:47.377Z,5.60
2018-09-19T03:09:47.338Z,5.90
2018-09-19T03:10:47.336Z,5.60
2018-09-19T03:11:47.280Z,5.80
2018-09-19T03:12:47.218Z,5.80
2018-09-19T03:13:47.196Z,5.50
2018-09-19T03:14:47.171Z,5.50
2018-09-19T03:15:47.160Z,5.60
2018-09-19T03:16:47.139Z,6.30
2018-09-19T03:17:47.160Z,5.60
2018-09-19T03:18:47.033Z,5.60
2018-09-19T03:19:46.941Z,6.30
2018-09-19T03:20:46.993Z,5.90
2018-09-19T03:21:46.893Z,6.20
2018-09-19T03:22:46.825Z,6.10
2018-09-19T03:23:46.799Z,6.00
2018-09-19T03:24:46.762Z,5.70
2018-09-19T03:25:46.720Z,5.80
2018-09-19T03:26:46.729Z,6.10
2018-09-19T03:27:46.644Z,6.10
2018-09-19T03:28:46.615Z,6.00
2018-09-19T03:29:46.569Z,6.10
2018-09-19T03:30:46.529Z,5.80
2018-09-19T03:31:46.480Z,5.70
2018-09-19T03:32:46.473Z,5.60
2018-09-19T03:33:46.407Z,5.50
2018-09-19T03:34:46.378Z,5.50
2018-09-19T03:35:46.331Z,6.30
2018-09-19T03:36:46.285Z,5.50
2018-09-19T03:37:46.266Z,5.50
2018-09-19T03:38:46.219Z,6.30
2018-09-19T03:39:46.200Z,5.70
2018-09-19T03:40:46.136Z,5.70
2018-09-19T03:41:46.093Z,5.70
2018-09-19T03:42:46.074Z,5.30
2018-09-19T03:43:46.013Z,5.80
2018-09-19T03:44:45.971Z,6.10
2018-09-19T03:45:45.933Z,5.90
2018-09-19T03:46:45.907Z,6.20
2018-09-19T03:47:45.854Z,6.00
2018-09-19T03:48:45.849Z,6.10
2018-09-19T03:49:45.785Z,5.60
2018-09-19T03:50:45.729Z,5.80
2018-09-19T03:51:45.689Z,5.70
2018-09-19T03:52:45.704Z,6.70
2018-09-19T03:53:45.650Z,6.70
2018-09-19T03:54:45.579Z,6.20
2018-09-19T03:55:45.540Z,6.30
2018-09-19T03:56:45.492Z,6.30
2018-09-19T03:57:45.454Z,6.80
2018-09-19T03:58:45.472Z,5.90
2018-09-19T03:59:45.396Z,6.50
2018-09-19T04:00:45.355Z,6.20
2018-09-19T04:01:45.314Z,5.90
2018-09-19T04:02:45.261Z,5.30
2018-09-19T04:03:45.236Z,5.80
2018-09-19T04:04:45.217Z,6.40
2018-09-19T04:05:45.175Z,6.30
2018-09-19T04:06:45.110Z,6.60
2018-09-19T04:07:45.072Z,6.60
2018-09-19T04:08:45.048Z,6.10
2018-09-19T04:09:44.993Z,6.60
2018-09-19T04:10:44.954Z,6.90
2018-09-19T04:11:44.924Z,7.00
2018-09-19T04:12:44.882Z,7.50
2018-09-19T04:13:44.864Z,8.20
2018-09-19T04:14:44.802Z,7.80
2018-09-19T04:15:44.760Z,7.90
2018-09-19T04:16:44.724Z,7.70
2018-09-19T04:17:44.724Z,7.30
2018-09-19T04:18:44.690Z,7.60
2018-09-19T04:19:55.694Z,7.20
2018-09-19T04:20:44.559Z,6.20
2018-09-19T04:21:44.522Z,6.80
2018-09-19T04:22:44.489Z,7.20
2018-09-19T04:23:44.447Z,6.70
2018-09-19T04:24:44.435Z,6.50
2018-09-19T04:25:44.374Z,6.90
2018-09-19T04:26:44.351Z,6.70
2018-09-19T04:27:44.337Z,6.40
2018-09-19T04:28:44.274Z,6.50
2018-09-19T04:29:44.221Z,6.50
2018-09-19T04:30:44.197Z,6.50
2018-09-19T04:31:44.142Z,6.10
2018-09-19T04:32:44.086Z,7.00
2018-09-19T04:33:44.096Z,7.00
2018-09-19T04:34:44.021Z,8.00
2018-09-19T04:35:43.973Z,8.00
2018-09-19T04:36:43.955Z,7.50
2018-09-19T04:37:43.902Z,7.80
2018-09-19T04:38:43.866Z,7.20
2018-09-19T04:39:43.858Z,7.80
2018-09-19T04:40:43.791Z,7.90
2018-09-19T04:41:43.755Z,7.70
2018-09-19T04:42:43.717Z,7.20
2018-09-19T04:43:54.175Z,7.70
2018-09-19T04:44:43.648Z,7.10
2018-09-19T04:45:43.577Z,7.50
2018-09-19T04:46:43.545Z,7.60
2018-09-19T04:47:43.524Z,7.20
2018-09-19T04:48:43.492Z,8.20
2018-09-19T04:49:43.485Z,6.80
2018-09-19T04:50:43.390Z,7.30
2018-09-19T04:51:43.442Z,7.40
2018-09-19T04:52:43.334Z,7.10
2018-09-19T04:53:43.283Z,7.10
2018-09-19T04:54:43.225Z,7.10
2018-09-19T04:55:43.221Z,7.00
2018-09-19T04:56:43.161Z,7.20
2018-09-19T04:57:43.107Z,6.90
2018-09-19T04:58:43.116Z,7.20
2018-09-19T04:59:43.061Z,7.40
2018-09-19T05:00:43.037Z,7.10
2018-09-19T05:01:42.976Z,6.70
2018-09-19T05:02:42.931Z,7.20
2018-09-19T05:03:42.894Z,6.80
2018-09-19T05:04:42.844Z,6.80
2018-09-19T05:05:42.871Z,7.20
2018-09-19T05:06:42.776Z,7.40
2018-09-19T05:07:42.732Z,7.10
2018-09-19T05:08:42.684Z,6.90
2018-09-19T05:09:42.645Z,7.00
2018-09-19T05:10:42.640Z,6.90
2018-09-19T05:11:42.577Z,7.00
2018-09-19T05:12:42.538Z,7.60
2018-09-19T05:13:42.486Z,7.20
2018-09-19T05:14:42.456Z,7.10
2018-09-19T05:15:42.413Z,7.50
2018-09-19T05:16:42.390Z,7.20
2018-09-19T05:17:42.331Z,7.00
2018-09-19T05:18:42.302Z,7.60
2018-09-19T05:19:42.272Z,7.50
2018-09-19T05:20:42.227Z,7.00
2018-09-19T05:21:42.222Z,7.10
2018-09-19T05:22:42.145Z,6.80
2018-09-19T05:23:42.112Z,7.00
2018-09-19T05:24:42.064Z,7.00
2018-09-19T05:25:42.025Z,7.50
2018-09-19T05:26:42.025Z,7.30
2018-09-19T05:27:41.941Z,7.30
2018-09-19T05:28:41.899Z,7.10
2018-09-19T05:29:41.877Z,7.40
2018-09-19T05:30:53.213Z,7.10
2018-09-19T05:31:41.823Z,7.20
2018-09-19T05:32:41.791Z,7.50
2018-09-19T05:33:41.755Z,7.00
2018-09-19T05:34:41.677Z,7.10
2018-09-19T05:35:41.637Z,7.10
2018-09-19T05:36:41.619Z,7.50
2018-09-19T05:37:41.593Z,7.10
2018-09-19T05:38:41.530Z,7.50
2018-09-19T05:39:41.486Z,7.10
2018-09-19T05:40:41.465Z,7.50
2018-09-19T05:41:41.425Z,7.00
2018-09-19T05:42:41.401Z,7.20
2018-09-19T05:43:41.341Z,7.40
2018-09-19T05:44:41.307Z,7.30
2018-09-19T05:45:41.264Z,7.60
2018-09-19T05:46:41.223Z,7.30
2018-09-19T05:47:41.211Z,7.40
2018-09-19T05:48:41.211Z,7.40
2018-09-19T05:49:41.105Z,7.20
2018-09-19T05:50:41.072Z,7.20
2018-09-19T05:51:41.031Z,7.20
2018-09-19T05:52:41.033Z,7.20
2018-09-19T05:53:40.980Z,7.50
2018-09-19T05:54:40.994Z,7.10
2018-09-19T05:55:40.891Z,7.20
2018-09-19T05:56:40.844Z,7.00
2018-09-19T05:57:40.812Z,7.40
2018-09-19T05:58:40.780Z,6.90
2018-09-19T05:59:40.735Z,6.80
2018-09-19T06:00:40.708Z,7.10
2018-09-19T06:01:40.683Z,7.00
2018-09-19T06:02:40.660Z,7.10
2018-09-19T06:03:40.577Z,7.20
2018-09-19T06:04:40.542Z,7.60
2018-09-19T06:05:40.500Z,7.10
2018-09-19T06:06:40.450Z,7.30
2018-09-19T06:07:40.429Z,6.80
2018-09-19T06:08:40.410Z,7.30
2018-09-19T06:09:40.348Z,6.80
2018-09-19T06:10:40.324Z,7.10
2018-09-19T06:11:40.261Z,7.40
2018-09-19T06:12:40.268Z,7.50
2018-09-19T06:13:40.220Z,7.30
2018-09-19T06:14:40.151Z,7.30
2018-09-19T06:15:40.118Z,7.40
2018-09-19T06:16:40.074Z,7.20
2018-09-19T06:17:40.062Z,6.80
2018-09-19T06:18:40.035Z,7.30
2018-09-19T06:19:39.965Z,7.20
2018-09-19T06:20:39.941Z,6.60
2018-09-19T06:21:39.899Z,7.40
2018-09-19T06:22:39.853Z,7.20
2018-09-19T06:23:39.834Z,6.70
2018-09-19T06:24:39.818Z,7.00
2018-09-19T06:25:39.789Z,6.80
2018-09-19T06:26:39.721Z,6.70
2018-09-19T06:27:39.705Z,7.20
2018-09-19T06:28:39.672Z,7.30
2018-09-19T06:29:39.623Z,7.10
2018-09-19T06:30:39.560Z,7.10
2018-09-19T06:31:39.531Z,6.80
2018-09-19T06:32:39.522Z,7.00
2018-09-19T06:33:39.460Z,7.20
2018-09-19T06:34:39.454Z,6.60
2018-09-19T06:35:39.400Z,6.40
2018-09-19T06:36:39.350Z,6.80
2018-09-19T06:37:39.311Z,7.10
2018-09-19T06:38:39.289Z,7.10
2018-09-19T06:39:39.291Z,6.70
2018-09-19T06:40:39.317Z,6.80
2018-09-19T06:41:39.185Z,6.20
2018-09-19T06:42:50.272Z,6.40
2018-09-19T06:43:39.108Z,6.30
2018-09-19T06:44:39.130Z,6.70
2018-09-19T06:45:39.111Z,6.70
2018-09-19T06:46:39.010Z,6.40
2018-09-19T06:47:38.952Z,6.70
2018-09-19T06:48:38.955Z,6.30
2018-09-19T06:49:38.930Z,6.30
2018-09-19T06:50:38.871Z,6.90
2018-09-19T06:51:38.844Z,6.40
2018-09-19T06:52:38.803Z,6.50
2018-09-19T06:53:38.766Z,6.60
2018-09-19T06:54:38.750Z,6.60
2018-09-19T06:55:38.682Z,6.50
2018-09-19T06:56:38.658Z,6.70
2018-09-19T06:57:38.650Z,6.60
2018-09-19T06:58:38.590Z,6.60
2018-09-19T06:59:38.617Z,6.50
2018-09-19T07:00:38.513Z,6.70
2018-09-19T07:01:38.477Z,7.10
2018-09-19T07:02:38.457Z,6.20
2018-09-19T07:03:38.429Z,6.70
2018-09-19T07:04:38.409Z,6.60
2018-09-19T07:05:48.861Z,6.70
2018-09-19T07:06:38.309Z,6.90
2018-09-19T07:07:38.283Z,6.80
2018-09-19T07:08:38.235Z,6.40
2018-09-19T07:09:38.227Z,6.50
2018-09-19T07:10:38.242Z,6.30
2018-09-19T07:11:38.137Z,6.30
2018-09-19T07:12:38.151Z,6.70
2018-09-19T07:13:38.079Z,6.10
2018-09-19T07:14:38.064Z,6.50
2018-09-19T07:15:38.022Z,6.40
2018-09-19T07:16:37.961Z,6.10
2018-09-19T07:17:37.923Z,6.70
2018-09-19T07:18:37.975Z,6.80
2018-09-19T07:19:37.914Z,6.70
2018-09-19T07:20:37.839Z,6.40
2018-09-19T07:21:37.806Z,6.40
2018-09-19T07:22:37.779Z,6.70
2018-09-19T07:23:37.764Z,6.70
2018-09-19T07:24:37.717Z,6.90
2018-09-19T07:25:37.663Z,6.60
2018-09-19T07:26:37.641Z,6.60
2018-09-19T07:27:37.607Z,6.70
2018-09-19T07:28:37.604Z,7.00
2018-09-19T07:29:37.526Z,6.90
2018-09-19T07:30:37.499Z,6.80
2018-09-19T07:31:37.508Z,7.10
2018-09-19T07:32:37.448Z,6.30
2018-09-19T07:33:37.434Z,6.50
2018-09-19T07:34:37.369Z,6.50
2018-09-19T07:35:37.550Z,6.20
2018-09-19T07:36:37.293Z,6.60
2018-09-19T07:37:37.269Z,6.50
2018-09-19T07:38:37.268Z,6.30
2018-09-19T07:39:37.204Z,6.80
2018-09-19T07:40:37.199Z,6.50
2018-09-19T07:41:37.141Z,6.90
2018-09-19T07:42:37.118Z,6.80
2018-09-19T07:43:37.099Z,6.60
2018-09-19T07:44:37.055Z,7.00
2018-09-19T07:45:37.014Z,6.40
2018-09-19T07:46:37.052Z,6.30
2018-09-19T07:47:36.945Z,6.40
2018-09-19T07:48:36.937Z,6.60
2018-09-19T07:49:36.877Z,5.90
2018-09-19T07:50:36.849Z,6.50
2018-09-19T07:51:36.815Z,6.50
2018-09-19T07:52:36.803Z,6.00
2018-09-19T07:53:36.782Z,6.90
2018-09-19T07:54:36.736Z,6.70
2018-09-19T07:55:36.711Z,6.80
2018-09-19T07:56:36.666Z,6.60
2018-09-19T07:57:36.620Z,6.60
2018-09-19T07:58:36.621Z,6.50
2018-09-19T07:59:36.583Z,6.40
2018-09-19T08:00:36.601Z,6.60
2018-09-19T08:01:36.508Z,6.20
2018-09-19T08:02:36.470Z,6.80
2018-09-19T08:03:36.460Z,6.00
2018-09-19T08:04:36.427Z,6.60
2018-09-19T08:05:36.379Z,6.50
2018-09-19T08:06:36.365Z,6.80
2018-09-19T08:07:36.319Z,6.40
2018-09-19T08:08:36.306Z,6.60
2018-09-19T08:09:36.255Z,6.30
2018-09-19T08:10:36.206Z,6.40
2018-09-19T08:11:36.202Z,6.50
2018-09-19T08:12:36.159Z,6.50
2018-09-19T08:13:45.912Z,6.10
2018-09-19T08:14:36.084Z,6.20
2018-09-19T08:15:36.074Z,6.60
2018-09-19T08:16:36.030Z,6.30
2018-09-19T08:17:36.015Z,5.90
2018-09-19T08:18:35.962Z,6.40
2018-09-19T08:19:46.363Z,6.30
2018-09-19T08:20:35.905Z,6.80
2018-09-19T08:21:35.864Z,6.40
2018-09-19T08:22:35.946Z,6.50
2018-09-19T08:23:35.810Z,6.30
2018-09-19T08:24:35.768Z,6.80
2018-09-19T08:25:35.741Z,6.20
2018-09-19T08:26:35.721Z,6.80
2018-09-19T08:27:35.704Z,6.40
2018-09-19T08:28:35.644Z,6.50
2018-09-19T08:29:35.612Z,6.40
2018-09-19T08:30:35.606Z,6.80
2018-09-19T08:31:35.557Z,6.80
2018-09-19T08:32:35.546Z,6.70
2018-09-19T08:33:35.503Z,6.60
2018-09-19T08:34:35.456Z,6.80
2018-09-19T08:35:35.438Z,6.40
2018-09-19T08:36:35.397Z,7.00
2018-09-19T08:37:35.412Z,6.60
2018-09-19T08:38:35.331Z,6.60
2018-09-19T08:39:35.326Z,6.60
2018-09-19T08:40:35.270Z,6.60
2018-09-19T08:41:35.237Z,6.40
2018-09-19T08:42:35.223Z,6.30
2018-09-19T08:43:35.177Z,6.50
2018-09-19T08:44:35.137Z,6.80
2018-09-19T08:45:35.142Z,7.00
2018-09-19T08:46:35.107Z,6.50
2018-09-19T08:47:35.072Z,5.90
2018-09-19T08:48:35.007Z,6.40
2018-09-19T08:49:34.977Z,6.00
2018-09-19T08:50:34.971Z,6.20
2018-09-19T08:51:34.911Z,6.20
2018-09-19T08:52:34.907Z,6.60
2018-09-19T08:53:34.844Z,6.50
2018-09-19T08:54:34.813Z,6.20
2018-09-19T08:55:34.791Z,6.50
2018-09-19T08:56:34.739Z,6.30
2018-09-19T08:57:34.744Z,6.40
2018-09-19T08:58:34.686Z,6.40
2018-09-19T08:59:34.651Z,6.00
2018-09-19T09:00:34.611Z,6.10
2018-09-19T09:01:34.586Z,6.10
2018-09-19T09:02:34.578Z,6.40
2018-09-19T09:03:34.518Z,5.90
2018-09-19T09:04:34.497Z,6.60
2018-09-19T09:05:34.483Z,5.90
2018-09-19T09:06:44.909Z,5.90
2018-09-19T09:07:34.415Z,6.10
2018-09-19T09:08:34.364Z,6.40
2018-09-19T09:09:34.338Z,5.70
2018-09-19T09:10:34.311Z,5.80
2018-09-19T09:11:34.277Z,5.80
2018-09-19T09:12:34.310Z,5.90
2018-09-19T09:13:34.210Z,5.80
2018-09-19T09:14:34.181Z,5.60
2018-09-19T09:15:34.153Z,5.80
2018-09-19T09:16:34.122Z,5.70
2018-09-19T09:17:43.992Z,5.90
2018-09-19T09:18:34.052Z,6.10
2018-09-19T09:19:34.027Z,5.50
2018-09-19T09:20:34.002Z,6.00
2018-09-19T09:21:33.994Z,5.50
2018-09-19T09:22:33.962Z,5.20
2018-09-19T09:23:33.913Z,5.10
2018-09-19T09:24:33.875Z,5.50
2018-09-19T09:25:33.840Z,5.40
2018-09-19T09:26:33.819Z,5.50
2018-09-19T09:27:33.823Z,5.70
2018-09-19T09:28:33.754Z,5.20
2018-09-19T09:29:33.736Z,4.90
2018-09-19T09:30:33.700Z,5.30
2018-09-19T09:31:33.666Z,5.80
2018-09-19T09:32:33.677Z,5.60
2018-09-19T09:33:33.614Z,5.10
2018-09-19T09:34:33.595Z,5.40
2018-09-19T09:35:33.559Z,5.40
2018-09-19T09:36:33.527Z,5.30
2018-09-19T09:37:33.491Z,5.10
2018-09-19T09:38:33.502Z,5.50
2018-09-19T09:39:33.481Z,5.00
2018-09-19T09:40:33.455Z,5.50
2018-09-19T09:41:33.394Z,5.50
2018-09-19T09:42:33.341Z,5.10
2018-09-19T09:43:33.386Z,4.90
2018-09-19T09:44:33.296Z,4.90
2018-09-19T09:45:33.276Z,5.00
2018-09-19T09:46:33.241Z,5.00
2018-09-19T09:47:33.201Z,4.80
2018-09-19T09:48:33.268Z,4.60
2018-09-19T09:49:33.144Z,5.10
2018-09-19T09:50:33.116Z,4.70
2018-09-19T09:51:33.113Z,5.10
2018-09-19T09:52:33.059Z,5.10
2018-09-19T09:54:33.004Z,5.00
2018-09-19T09:55:33.002Z,5.00
2018-09-19T09:56:32.945Z,5.00
2018-09-19T09:57:32.925Z,4.60
2018-09-19T09:58:32.885Z,4.80
2018-09-19T09:59:32.884Z,4.80
2018-09-19T10:00:32.836Z,4.60
2018-09-19T10:01:32.834Z,5.20
2018-09-19T10:02:32.772Z,4.90
2018-09-19T10:03:32.754Z,5.10
2018-09-19T10:04:32.734Z,5.00
2018-09-19T10:05:32.684Z,5.20
2018-09-19T10:06:32.803Z,4.80
2018-09-19T10:07:32.620Z,4.80
2018-09-19T10:08:32.600Z,5.00
2018-09-19T10:09:32.599Z,4.80
2018-09-19T10:10:32.536Z,4.80
2018-09-19T10:11:32.506Z,4.80
2018-09-19T10:12:32.496Z,5.00
2018-09-19T10:13:32.463Z,5.10
2018-09-19T10:14:32.451Z,4.70
2018-09-19T10:15:32.408Z,4.80
2018-09-19T10:16:32.394Z,4.50
2018-09-19T10:17:32.317Z,4.80
2018-09-19T10:18:43.622Z,4.90
2018-09-19T10:19:32.577Z,5.00
2018-09-19T10:20:32.255Z,4.60
2018-09-19T10:21:32.203Z,5.10
2018-09-19T10:22:32.163Z,5.00
2018-09-19T10:23:32.139Z,4.50
2018-09-19T10:24:32.136Z,4.70
2018-09-19T10:25:32.075Z,4.80
2018-09-19T10:26:32.073Z,4.40
2018-09-19T10:27:32.016Z,4.50
2018-09-19T10:28:31.991Z,4.70
2018-09-19T10:29:32.001Z,4.90
2018-09-19T10:30:31.933Z,4.60
2018-09-19T10:31:31.910Z,4.80
2018-09-19T10:32:31.884Z,4.60
2018-09-19T10:33:31.830Z,4.60
2018-09-19T10:34:31.848Z,4.40
2018-09-19T10:35:31.886Z,4.50
2018-09-19T10:36:34.450Z,4.30
2018-09-19T10:37:31.777Z,4.10
2018-09-19T10:38:31.699Z,4.40
2018-09-19T10:39:31.670Z,4.30
2018-09-19T10:40:31.610Z,3.90
2018-09-19T10:41:38.414Z,3.90
2018-09-19T10:42:32.934Z,3.50
2018-09-19T10:43:32.600Z,3.30
2018-09-19T10:44:32.891Z,3.20
2018-09-19T10:45:31.564Z,3.00
2018-09-19T10:46:31.591Z,3.10
2018-09-19T10:47:31.461Z,3.10
2018-09-19T10:48:31.367Z,3.10
2018-09-19T10:49:31.523Z,2.70
2018-09-19T10:50:31.334Z,3.10
2018-09-19T10:51:31.270Z,2.90
2018-09-19T10:52:31.263Z,2.90
2018-09-19T10:53:31.999Z,2.90
2018-09-19T10:54:31.330Z,2.90
2018-09-19T10:55:31.320Z,2.90
2018-09-19T10:56:32.059Z,2.90
2018-09-19T10:57:31.094Z,3.10
2018-09-19T10:58:31.056Z,2.80
2018-09-19T10:59:31.059Z,2.80
2018-09-19T11:00:31.015Z,2.80
2018-09-19T11:01:30.946Z,3.10
2018-09-19T11:02:30.925Z,2.90
2018-09-19T11:03:30.924Z,3.00
2018-09-19T11:04:30.952Z,3.00
2018-09-19T11:05:30.889Z,2.80
2018-09-19T11:06:30.806Z,2.90
2018-09-19T11:07:30.779Z,2.70
2018-09-19T11:08:30.752Z,3.10
2018-09-19T11:09:30.729Z,2.70
2018-09-19T11:10:30.710Z,3.00
2018-09-19T11:11:30.661Z,2.70
2018-09-19T11:12:30.638Z,3.10
2018-09-19T11:13:30.632Z,3.10
2018-09-19T11:14:30.610Z,2.80
2018-09-19T11:15:30.539Z,2.90
2018-09-19T11:16:30.529Z,2.70
2018-09-19T11:17:30.493Z,3.00
2018-09-19T11:18:30.486Z,2.90
2018-09-19T11:19:30.453Z,2.80
2018-09-19T11:20:30.413Z,3.00
2018-09-19T11:21:30.375Z,3.00
2018-09-19T11:22:30.349Z,2.70
2018-09-19T11:23:30.316Z,3.40
2018-09-19T11:24:30.399Z,3.20
2018-09-19T11:25:31.042Z,3.20
2018-09-19T11:26:30.276Z,3.30
2018-09-19T11:27:30.216Z,3.30
2018-09-19T11:28:30.201Z,3.30
2018-09-19T11:29:30.188Z,3.20
2018-09-19T11:30:40.555Z,3.60
2018-09-19T11:31:30.095Z,3.80
2018-09-19T11:32:30.077Z,3.50
2018-09-19T11:33:30.074Z,7.00
2018-09-19T11:34:30.050Z,5.40
2018-09-19T11:35:30.009Z,3.70
2018-09-19T11:36:29.966Z,3.30
2018-09-19T11:37:29.956Z,3.50
2018-09-19T11:38:29.905Z,3.50
2018-09-19T11:39:29.983Z,4.00
2018-09-19T11:40:29.871Z,3.90
2018-09-19T11:41:29.875Z,6.60
2018-09-19T11:42:29.812Z,6.10
2018-09-19T11:43:29.773Z,3.40
2018-09-19T11:44:29.737Z,5.00
2018-09-19T11:45:29.737Z,3.80
2018-09-19T11:46:29.689Z,3.70
2018-09-19T11:47:29.661Z,3.20
2018-09-19T11:48:29.626Z,3.60
2018-09-19T11:49:29.599Z,3.90
2018-09-19T11:50:29.593Z,3.70
2018-09-19T11:51:29.543Z,3.90
2018-09-19T11:52:29.509Z,3.40
2018-09-19T11:53:29.479Z,3.30
2018-09-19T11:54:29.458Z,3.10
2018-09-19T11:55:29.443Z,3.80
2018-09-19T11:56:29.401Z,3.50
2018-09-19T11:57:29.349Z,3.40
2018-09-19T11:58:29.323Z,3.10
2018-09-19T11:59:29.303Z,3.10
2018-09-19T12:00:29.298Z,3.00
2018-09-19T12:01:29.231Z,3.00
2018-09-19T12:02:29.210Z,3.20
2018-09-19T12:03:29.186Z,3.20
2018-09-19T12:04:29.141Z,3.20
2018-09-19T12:05:40.423Z,3.10
2018-09-19T12:06:29.082Z,3.10
2018-09-19T12:07:29.077Z,3.30
2018-09-19T12:08:29.029Z,3.60
2018-09-19T12:09:28.973Z,3.00
2018-09-19T12:10:28.953Z,3.10
2018-09-19T12:11:28.940Z,3.50
2018-09-19T12:12:28.898Z,3.40
2018-09-19T12:13:28.878Z,3.20
2018-09-19T12:14:28.815Z,3.40
2018-09-19T12:15:28.801Z,3.30
2018-09-19T12:16:28.784Z,3.00
2018-09-19T12:17:28.728Z,3.00
2018-09-19T12:18:28.696Z,3.20
2018-09-19T12:19:28.679Z,2.90
2018-09-19T12:20:28.640Z,3.00
2018-09-19T12:21:28.634Z,3.10
2018-09-19T12:22:28.578Z,3.10
2018-09-19T12:23:28.559Z,3.00
2018-09-19T12:24:28.515Z,3.20
2018-09-19T12:25:28.487Z,3.30
2018-09-19T12:26:28.529Z,3.00
2018-09-19T12:27:28.422Z,3.30
2018-09-19T12:28:28.387Z,3.10
2018-09-19T12:29:28.376Z,3.30
2018-09-19T12:30:28.348Z,3.20
2018-09-19T12:31:28.313Z,3.30
2018-09-19T12:32:28.283Z,3.30
2018-09-19T12:33:28.258Z,2.90
2018-09-19T12:34:28.216Z,3.10
2018-09-19T12:35:28.182Z,3.00
2018-09-19T12:36:28.178Z,3.10
2018-09-19T12:37:28.140Z,2.90
2018-09-19T12:38:28.068Z,3.00
2018-09-19T12:39:28.082Z,3.10
2018-09-19T12:40:28.019Z,3.20
2018-09-19T12:41:27.979Z,3.10
2018-09-19T12:42:27.986Z,3.20
2018-09-19T12:43:27.914Z,3.00
2018-09-19T12:44:27.892Z,3.10
2018-09-19T12:45:27.864Z,3.40
2018-09-19T12:46:27.838Z,3.40
2018-09-19T12:47:27.817Z,3.30
2018-09-19T12:48:27.770Z,3.40
2018-09-19T12:49:27.734Z,2.90
2018-09-19T12:50:27.698Z,3.10
2018-09-19T12:51:27.665Z,3.20
2018-09-19T12:52:27.665Z,3.20
2018-09-19T12:53:27.622Z,3.10
2018-09-19T12:54:27.585Z,3.00
2018-09-19T12:55:27.549Z,3.30
2018-09-19T12:56:27.517Z,3.10
2018-09-19T12:57:27.537Z,3.20
2018-09-19T12:58:27.468Z,3.10
2018-09-19T12:59:27.419Z,2.90
2018-09-19T13:00:27.398Z,2.80
2018-09-19T13:01:27.347Z,3.30
2018-09-19T13:02:27.357Z,3.10
2018-09-19T13:03:27.303Z,3.00
2018-09-19T13:04:27.257Z,3.50
2018-09-19T13:05:27.240Z,3.10
2018-09-19T13:06:27.252Z,3.10
2018-09-19T13:07:27.198Z,3.20
2018-09-19T13:08:27.153Z,2.90
2018-09-19T13:09:27.107Z,3.40
2018-09-19T13:10:27.081Z,3.50
2018-09-19T13:11:27.048Z,3.10
2018-09-19T13:12:27.035Z,2.90
2018-09-19T13:13:26.977Z,3.40
2018-09-19T13:14:26.959Z,3.20
2018-09-19T13:15:26.931Z,3.00
2018-09-19T13:16:26.917Z,3.10
2018-09-19T13:17:26.860Z,3.00
2018-09-19T13:18:27.005Z,2.90
2018-09-19T13:19:26.793Z,3.00